首页
METAR-TAF:

METAR-TAF

机场 :

辛菲羅波爾國際機場

辛菲罗波尔, 俄罗斯

纬度: 45-03-08N, 经度: 033-58-31E, 海拔: 195米

当前天气观测

该预报发布于44分钟前的20:00 UTC
风速12节,风向南转西南
温度 11°C
湿度 50%
气压 1004 hPa
能见度10公里或以上
1500米以下无云,无积雨云

METAR: URFF 262000Z 20006MPS CAVOK 11/01 Q1004 R19/090095 NOSIG

时间: 23:44 (20:44 UTC)

预报

该预报发布于51分钟前的19:53 UTC
预报有效从26日的 21点(UTC)到 27日的 21点(UTC)
风速14节,风向南转西南,有时为23节阵风
能见度10公里或以上
1500米以下无云,无积雨云
成为
从 27日的 03点(UTC)到 27日的 04点(UTC)
风速23节,风向南转西南,有时为33节阵风
从 27日的 1500点(UTC)
风速16节,风向南转西南,有时为25节阵风
能见度10公里或以上
散云层高于2000英尺, 积雨云.

TAF: URFF 261953Z 2621/2721 20007G12MPS CAVOK TX16/2711Z TN10/2621Z BECMG 2703/2704 21012G17MPS FM271500 20008G13MPS 9999 SCT020CB

超过4000个机场的气象观测和天气预报(METAR&TAF报告)。

可查询的气象台以黄色和红色小点在地图上表示。

将鼠标移到小点上方,可查看气象台名称。

然后点击查看天气观测和预报。

如需切换地图:点击带黑十字的绿色按钮放大地图;点击带横线的绿色按钮缩小地图;或者点击绿色箭头查看邻近地区的地图。


METAR-TAF: